Time;durP1;ratioP1;P1;durP2;ratioP2;P2;SDS_P1;SDS_P2;PMS_P1;PMS_P2;Temp;Humidity;BMP_temperature;BMP_pressure;BME280_temperature;BME280_humidity;BME280_pressure;Samples;Min_cycle;Max_cycle;Signal;HPM_P1;HPM_P2
2022/02/04 00:23:22;;;;;;;5.07;4.03;;;7.60;99.90;;;;;;5013065;28;20562;-72
2022/02/04 00:28:27;;;;;;;6.25;3.88;;;7.60;99.90;;;;;;5012663;28;20219;-71
2022/02/04 00:31:09;;;;;;;5.00;3.67;;;7.60;99.90;;;;;;5012971;28;20225;-70
2022/02/04 00:33:37;;;;;;;4.97;4.40;;;7.60;99.90;;;;;;5013026;28;20178;-70
2022/02/04 00:36:16;;;;;;;5.55;4.47;;;7.60;99.90;;;;;;5012970;28;20167;-70
2022/02/04 00:38:45;;;;;;;5.00;4.57;;;7.60;99.90;;;;;;5012536;28;20227;-72
2022/02/04 00:41:14;;;;;;;4.93;4.50;;;7.60;99.90;;;;;;5013052;28;20272;-71
2022/02/04 00:43:41;;;;;;;4.15;3.75;;;7.60;99.90;;;;;;5012968;28;20202;-71
2022/02/04 00:46:22;;;;;;;7.05;3.38;;;7.60;99.90;;;;;;5016495;28;20162;-72
2022/02/04 00:56:38;;;;;;;4.10;2.80;;;7.60;99.90;;;;;;5016512;28;20210;-71
2022/02/04 01:26:17;;;;;;;3.63;3.33;;;7.40;99.90;;;;;;5015864;28;20179;-71
2022/02/04 01:28:45;;;;;;;7.53;3.72;;;7.50;99.90;;;;;;5015188;28;20257;-72
2022/02/04 01:31:14;;;;;;;3.38;3.08;;;7.40;99.90;;;;;;5015957;28;20580;-72
2022/02/04 01:33:39;;;;;;;3.40;3.05;;;7.40;99.90;;;;;;5015776;28;20174;-72
2022/02/04 01:36:05;;;;;;;3.60;3.27;;;7.40;99.90;;;;;;5015714;28;20163;-71
2022/02/04 01:38:31;;;;;;;3.45;2.72;;;7.40;99.90;;;;;;5015101;28;20174;-70
2022/02/04 01:40:58;;;;;;;4.10;3.43;;;7.40;99.90;;;;;;5014024;28;20205;-72
2022/02/04 01:43:24;;;;;;;3.95;3.50;;;7.40;99.90;;;;;;5015380;28;20413;-73
2022/02/04 01:46:04;;;;;;;4.95;2.78;;;7.40;99.90;;;;;;5015368;28;20178;-72
2022/02/04 01:48:31;;;;;;;3.42;2.88;;;7.40;99.90;;;;;;5014025;28;20656;-72
2022/02/04 01:50:57;;;;;;;4.22;3.70;;;7.40;99.90;;;;;;5015245;28;20182;-71
2022/02/04 01:53:30;;;;;;;4.20;3.77;;;7.40;99.90;;;;;;5015158;28;20542;-71
2022/02/04 01:56:05;;;;;;;3.08;2.78;;;7.40;99.90;;;;;;5014622;28;20397;-71
2022/02/04 01:58:31;;;;;;;8.23;2.95;;;7.30;99.90;;;;;;5015253;28;20181;-70
2022/02/04 02:00:57;;;;;;;3.03;2.70;;;7.40;99.90;;;;;;5015230;28;20213;-70
2022/02/04 02:03:24;;;;;;;4.57;2.97;;;7.30;99.90;;;;;;5015231;28;20620;-72
2022/02/04 02:05:51;;;;;;;3.03;2.72;;;7.40;99.90;;;;;;5015285;28;20166;-71
2022/02/04 02:08:19;;;;;;;3.63;2.75;;;7.30;99.90;;;;;;5014547;28;20267;-74
2022/02/04 02:10:46;;;;;;;2.65;2.50;;;7.30;99.90;;;;;;5014736;28;20218;-71
2022/02/04 02:54:37;;;;;;;3.58;2.83;;;7.10;99.90;;;;;;4994670;28;20265;-72
2022/02/04 02:59:37;;;;;;;3.20;2.42;;;7.00;99.90;;;;;;4983884;28;20203;-73
2022/02/04 03:02:02;;;;;;;6.38;3.55;;;7.00;99.90;;;;;;4999375;28;20607;-72
2022/02/04 03:04:28;;;;;;;2.80;2.50;;;7.00;99.90;;;;;;5013948;28;20203;-72
2022/02/04 03:06:54;;;;;;;2.87;2.10;;;7.00;99.90;;;;;;5014371;28;20464;-71
2022/02/04 03:09:19;;;;;;;3.00;2.40;;;6.90;99.90;;;;;;5012466;28;20300;-72
2022/02/04 03:11:45;;;;;;;2.43;2.23;;;6.90;99.90;;;;;;5012832;28;20182;-71
2022/02/04 03:14:11;;;;;;;2.40;1.93;;;6.90;99.90;;;;;;5013973;28;20205;-72
2022/02/04 03:16:37;;;;;;;3.70;2.87;;;6.90;99.90;;;;;;5013902;28;20244;-71
2022/02/04 03:19:06;;;;;;;3.38;1.95;;;6.90;99.90;;;;;;5013358;28;20210;-71
2022/02/04 03:21:40;;;;;;;2.50;2.30;;;6.90;99.90;;;;;;5013731;28;20530;-73
2022/02/04 03:24:10;;;;;;;3.00;2.75;;;6.90;99.90;;;;;;5013654;28;20178;-71
2022/02/04 03:26:48;;;;;;;2.40;1.90;;;6.90;99.90;;;;;;5014023;28;20572;-71
2022/02/04 03:29:19;;;;;;;3.40;3.10;;;6.90;99.90;;;;;;5013395;28;20213;-71
2022/02/04 03:31:50;;;;;;;3.60;3.17;;;6.80;99.90;;;;;;5013737;28;20177;-71
2022/02/04 03:34:17;;;;;;;3.40;1.85;;;6.90;99.90;;;;;;5012436;28;20624;-72
2022/02/04 03:36:42;;;;;;;2.42;2.20;;;6.90;99.90;;;;;;5013768;28;20192;-71
2022/02/04 03:39:08;;;;;;;2.17;2.07;;;6.90;99.90;;;;;;5013340;28;20265;-70
2022/02/04 03:41:34;;;;;;;2.47;2.27;;;6.90;99.90;;;;;;5013461;28;20196;-73
2022/02/04 03:43:59;;;;;;;9.70;2.60;;;6.90;99.90;;;;;;5013569;28;20219;-72
2022/02/04 03:46:25;;;;;;;4.40;3.23;;;6.90;99.90;;;;;;5013791;28;20169;-72
2022/02/04 03:48:51;;;;;;;4.10;3.70;;;6.90;99.90;;;;;;5013248;28;20324;-71
2022/02/04 03:51:16;;;;;;;2.73;2.53;;;6.90;99.90;;;;;;5013223;28;20197;-71
2022/02/04 03:53:42;;;;;;;2.50;2.07;;;6.90;99.90;;;;;;5013416;28;20183;-70
2022/02/04 03:56:08;;;;;;;2.63;2.43;;;6.90;99.90;;;;;;5013637;28;20177;-72
2022/02/04 03:58:37;;;;;;;3.23;2.93;;;6.90;99.90;;;;;;5013056;28;20177;-70
2022/02/04 04:01:04;;;;;;;4.38;2.90;;;6.90;99.90;;;;;;5013768;28;20449;-72
2022/02/04 04:03:32;;;;;;;3.55;3.25;;;6.90;99.90;;;;;;5013547;28;20241;-71
2022/02/04 04:05:58;;;;;;;2.67;2.47;;;6.90;99.90;;;;;;5013526;28;20217;-71
2022/02/04 04:08:24;;;;;;;2.37;2.17;;;6.90;99.90;;;;;;5013128;28;20174;-70
2022/02/04 04:10:52;;;;;;;3.95;3.03;;;6.90;99.90;;;;;;5013187;28;20194;-70
2022/02/04 04:13:19;;;;;;;3.72;2.53;;;7.00;99.90;;;;;;5013265;28;20170;-72
2022/02/04 04:15:45;;;;;;;4.22;3.90;;;7.00;99.90;;;;;;5013453;28;20189;-70
2022/02/04 04:18:13;;;;;;;2.73;2.53;;;7.00;99.90;;;;;;5012899;28;20177;-70
2022/02/04 04:20:45;;;;;;;4.07;2.63;;;7.00;99.90;;;;;;5015917;28;20515;-73
2022/02/04 04:23:11;;;;;;;2.88;2.63;;;7.00;99.90;;;;;;5017041;28;20180;-71
2022/02/04 04:25:37;;;;;;;3.80;2.75;;;7.00;99.90;;;;;;5017053;28;20170;-69
2022/02/04 04:28:03;;;;;;;3.60;3.30;;;6.90;99.90;;;;;;5016546;28;20203;-71
2022/02/04 04:30:28;;;;;;;4.00;3.10;;;6.90;99.90;;;;;;5016827;28;20191;-71
2022/02/04 04:32:56;;;;;;;2.87;2.67;;;7.00;99.90;;;;;;5016868;28;20517;-71
2022/02/04 04:35:25;;;;;;;4.93;3.03;;;6.90;99.90;;;;;;5016804;28;20171;-72
2022/02/04 04:37:58;;;;;;;3.05;2.67;;;6.90;99.90;;;;;;5016438;28;20181;-70
2022/02/04 05:27:03;;;;;;;3.83;3.53;;;6.90;99.90;;;;;;5016254;28;20178;-71
2022/02/04 05:29:20;;;;;;;4.50;4.10;;;6.90;99.90;;;;;;5015283;28;20200;-71
2022/02/04 05:31:47;;;;;;;4.65;2.78;;;6.90;99.90;;;;;;5014361;28;20537;-72
2022/02/04 05:34:16;;;;;;;4.03;3.33;;;7.00;99.90;;;;;;5015883;28;20261;-70
2022/02/04 05:36:45;;;;;;;2.72;2.15;;;6.90;99.90;;;;;;5015620;28;20627;-70
2022/02/04 05:39:12;;;;;;;5.43;4.30;;;7.00;99.90;;;;;;5015094;28;20287;-71
2022/02/04 05:41:42;;;;;;;3.67;3.10;;;7.00;99.90;;;;;;5015633;28;20230;-70
2022/02/04 05:44:11;;;;;;;3.30;3.00;;;6.90;99.90;;;;;;5015578;28;20244;-71
2022/02/04 05:46:50;;;;;;;6.32;4.35;;;6.90;99.90;;;;;;5015588;28;20178;-70
2022/02/04 05:49:18;;;;;;;3.30;3.00;;;6.90;99.90;;;;;;5013799;28;20197;-72
2022/02/04 05:52:09;;;;;;;3.53;3.15;;;6.80;99.90;;;;;;5013917;28;20197;-71
2022/02/04 05:55:22;;;;;;;3.90;3.60;;;6.80;99.90;;;;;;5015610;28;20175;-70
2022/02/04 05:57:44;;;;;;;5.53;3.55;;;6.80;99.90;;;;;;5013924;28;20252;-71
2022/02/04 06:02:59;;;;;;;3.00;2.60;;;6.70;99.90;;;;;;5015254;28;20554;-71
2022/02/04 06:06:04;;;;;;;8.05;4.30;;;6.70;99.90;;;;;;5015189;28;20190;-72
2022/02/04 06:13:27;;;;;;;5.30;4.45;;;6.50;99.90;;;;;;5014010;28;20167;-71
2022/02/04 06:24:12;;;;;;;7.40;2.97;;;6.60;99.90;;;;;;5015469;28;20534;-74
2022/02/04 06:26:38;;;;;;;3.30;3.10;;;6.60;99.90;;;;;;5015407;28;20177;-70
2022/02/04 06:29:04;;;;;;;5.20;3.60;;;6.60;99.90;;;;;;5012506;28;20201;-73
2022/02/04 06:31:30;;;;;;;10.33;4.87;;;6.60;99.90;;;;;;5014148;28;20340;-73
2022/02/04 06:33:56;;;;;;;3.60;3.25;;;6.60;99.90;;;;;;5013762;28;20412;-71
2022/02/04 06:36:21;;;;;;;4.30;3.67;;;6.60;99.90;;;;;;5014129;28;20181;-72
2022/02/04 06:38:47;;;;;;;4.00;3.60;;;6.60;99.90;;;;;;5013543;28;20186;-73
2022/02/04 06:41:13;;;;;;;7.30;3.83;;;6.60;99.90;;;;;;5013584;28;20653;-72
2022/02/04 06:43:38;;;;;;;12.77;11.20;;;6.60;99.90;;;;;;5000176;28;20175;-72
2022/02/04 06:46:04;;;;;;;4.23;3.83;;;6.50;99.90;;;;;;5005117;28;20171;-71
2022/02/04 06:48:30;;;;;;;5.47;4.47;;;6.60;99.90;;;;;;5013823;28;20167;-71
2022/02/04 06:50:56;;;;;;;4.83;4.30;;;6.50;99.90;;;;;;5014045;28;20434;-74
2022/02/04 06:53:22;;;;;;;4.77;4.30;;;6.50;99.90;;;;;;5014658;28;20652;-72
2022/02/04 06:55:47;;;;;;;4.77;4.33;;;6.60;99.90;;;;;;5033812;28;20863;-72
2022/02/04 06:58:13;;;;;;;5.43;4.70;;;6.60;99.90;;;;;;5020519;28;20209;-72
2022/02/04 07:00:40;;;;;;;4.00;3.60;;;6.50;99.90;;;;;;5029010;28;20221;-72
2022/02/04 07:03:06;;;;;;;6.18;2.75;;;6.50;99.90;;;;;;5014149;28;20250;-73
2022/02/04 07:05:40;;;;;;;4.65;3.53;;;6.50;99.90;;;;;;5013819;28;20175;-72
2022/02/04 07:08:21;;;;;;;3.30;3.00;;;6.50;99.90;;;;;;5013726;28;20287;-73
2022/02/04 07:13:22;;;;;;;5.27;3.00;;;6.50;99.90;;;;;;5014275;28;20173;-72
2022/02/04 07:16:19;;;;;;;4.45;4.05;;;6.60;99.90;;;;;;5014254;28;20173;-73
2022/02/04 07:21:08;;;;;;;8.43;3.80;;;6.50;99.90;;;;;;5013787;28;20747;-72
2022/02/04 07:23:37;;;;;;;6.30;3.38;;;6.50;99.90;;;;;;5013468;28;20181;-73
2022/02/04 07:26:04;;;;;;;7.85;5.45;;;6.50;99.90;;;;;;5013396;28;20376;-74
2022/02/04 07:28:31;;;;;;;13.25;8.27;;;6.50;99.90;;;;;;5013464;28;20224;-71
2022/02/04 07:30:58;;;;;;;5.82;4.70;;;6.60;99.90;;;;;;5013630;28;20170;-76
2022/02/04 07:33:37;;;;;;;5.00;4.60;;;6.60;99.90;;;;;;5013785;28;20209;-76
2022/02/04 07:41:16;;;;;;;3.80;3.47;;;6.60;99.90;;;;;;5013410;28;20599;-74
2022/02/04 07:43:42;;;;;;;5.03;4.28;;;6.60;99.90;;;;;;5013288;28;20556;-75
2022/02/04 07:46:10;;;;;;;3.87;3.50;;;6.60;99.90;;;;;;5013360;28;20162;-74
2022/02/04 07:48:37;;;;;;;3.83;3.53;;;6.60;99.90;;;;;;5013159;28;20568;-75
2022/02/04 07:51:03;;;;;;;8.38;4.57;;;6.60;99.90;;;;;;5013234;28;20266;-75
2022/02/04 07:53:33;;;;;;;2.80;2.60;;;6.60;99.90;;;;;;5013184;28;20194;-74
2022/02/04 07:55:58;;;;;;;3.53;2.85;;;6.60;99.90;;;;;;5017107;28;20165;-76
2022/02/04 07:58:24;;;;;;;3.73;3.40;;;6.60;99.90;;;;;;5016975;28;20617;-74
2022/02/04 08:00:51;;;;;;;4.40;3.87;;;6.60;99.90;;;;;;5016443;28;20203;-74
2022/02/04 08:05:45;;;;;;;5.07;4.13;;;6.70;99.90;;;;;;5017191;28;20700;-73
2022/02/04 08:19:11;;;;;;;3.63;2.72;;;6.90;99.90;;;;;;5016512;28;20633;-73
2022/02/04 08:22:01;;;;;;;4.32;3.90;;;7.00;99.90;;;;;;5016635;28;20202;-71
2022/02/04 08:27:40;;;;;;;5.17;3.83;;;7.40;99.90;;;;;;5016742;28;20189;-68
2022/02/04 08:51:29;;;;;;;3.20;2.40;;;14.80;99.90;;;;;;5016456;28;20426;-75
2022/02/04 08:54:12;;;;;;;5.80;2.50;;;15.30;99.90;;;;;;5016395;28;20427;-75
2022/02/04 08:56:43;;;;;;;4.00;3.20;;;15.90;99.90;;;;;;5016062;28;20450;-76
2022/02/04 08:59:21;;;;;;;2.40;2.20;;;16.20;99.90;;;;;;5015674;28;20435;-75
2022/02/04 09:01:55;;;;;;;3.13;2.93;;;16.30;99.90;;;;;;5014942;28;20530;-78
2022/02/04 09:04:30;;;;;;;2.70;2.50;;;16.30;99.90;;;;;;5017227;28;20399;-77
2022/02/04 09:07:02;;;;;;;3.00;2.70;;;16.40;99.90;;;;;;5016062;28;20897;-76
2022/02/04 09:09:30;;;;;;;2.77;2.57;;;16.60;99.90;;;;;;5015796;28;20424;-76
2022/02/04 09:12:21;;;;;;;2.87;2.67;;;16.90;99.90;;;;;;5016663;28;20383;-74
2022/02/04 09:17:51;;;;;;;2.87;2.50;;;17.60;97.50;;;;;;5015985;28;20413;-73
2022/02/04 09:20:25;;;;;;;2.70;2.20;;;17.50;98.40;;;;;;5015510;28;20446;-73
2022/02/04 09:22:51;;;;;;;2.20;2.00;;;17.90;98.00;;;;;;5015917;28;20493;-75
2022/02/04 09:25:17;;;;;;;2.33;2.20;;;17.80;96.80;;;;;;5016139;28;20485;-74
2022/02/04 09:27:44;;;;;;;3.90;3.30;;;17.20;96.70;;;;;;5015456;28;20171;-74
2022/02/04 09:30:13;;;;;;;2.83;2.63;;;16.90;98.30;;;;;;5014516;28;20438;-75
2022/02/04 09:32:42;;;;;;;3.13;2.93;;;17.00;97.70;;;;;;5014521;28;20426;-75
2022/02/04 09:35:11;;;;;;;2.60;2.40;;;16.70;97.80;;;;;;5013232;28;20881;-75
2022/02/04 09:37:37;;;;;;;3.43;2.53;;;16.00;97.90;;;;;;5011666;28;20388;-75
2022/02/04 09:40:04;;;;;;;3.67;3.30;;;15.10;98.50;;;;;;5014347;28;20464;-74
2022/02/04 09:42:30;;;;;;;2.27;2.07;;;14.60;99.90;;;;;;5012574;28;20406;-74
2022/02/04 09:44:56;;;;;;;4.80;3.57;;;14.20;99.90;;;;;;5013185;28;20409;-73
2022/02/04 09:47:25;;;;;;;3.23;2.60;;;13.90;99.90;;;;;;5012918;28;20409;-75
2022/02/04 09:49:59;;;;;;;2.67;2.47;;;13.50;99.90;;;;;;5013501;28;20184;-75
2022/02/04 10:19:25;;;;;;;1.23;1.07;;;11.30;99.90;;;;;;5004190;28;20419;-74
2022/02/04 10:22:02;;;;;;;1.50;1.40;;;11.30;99.90;;;;;;5004445;28;20440;-75
2022/02/04 10:24:28;;;;;;;1.43;1.00;;;11.10;99.90;;;;;;5004662;28;20383;-76
2022/02/04 10:27:22;;;;;;;4.17;1.87;;;11.10;99.90;;;;;;5003716;28;20795;-76
2022/02/04 10:29:57;;;;;;;1.50;1.40;;;11.10;99.90;;;;;;5003558;28;20444;-75
2022/02/04 10:32:38;;;;;;;1.73;1.60;;;11.00;99.90;;;;;;5004416;28;20375;-74
2022/02/04 10:35:37;;;;;;;1.40;1.30;;;10.90;99.90;;;;;;5004996;28;20423;-76
2022/02/04 10:38:16;;;;;;;2.27;2.07;;;10.80;99.90;;;;;;5010301;28;20390;-75
2022/02/04 10:41:01;;;;;;;2.20;1.80;;;10.80;99.90;;;;;;5014329;28;20472;-74
2022/02/04 10:51:47;;;;;;;2.20;2.10;;;10.80;99.90;;;;;;4997873;28;20968;-75
2022/02/04 11:00:11;;;;;;;1.53;1.00;;;10.90;99.90;;;;;;4997222;28;20418;-74
2022/02/04 11:02:56;;;;;;;1.13;1.10;;;10.90;99.90;;;;;;4997862;28;20398;-74
2022/02/04 11:05:45;;;;;;;1.50;1.17;;;10.90;99.90;;;;;;4996281;28;20427;-74
2022/02/04 11:09:05;;;;;;;1.30;1.20;;;10.90;99.90;;;;;;4994755;28;20397;-74
2022/02/04 11:11:20;;;;;;;2.43;1.53;;;10.90;99.90;;;;;;4994365;28;20395;-73
2022/02/04 11:33:56;;;;;;;1.10;1.10;;;10.40;99.90;;;;;;5011936;28;20171;-73
2022/02/04 11:36:10;;;;;;;2.38;1.67;;;10.40;99.90;;;;;;5004930;28;20214;-73
2022/02/04 11:47:56;;;;;;;1.17;1.13;;;10.20;99.90;;;;;;5031576;28;20253;-74
2022/02/04 11:53:54;;;;;;;1.00;0.90;;;10.10;99.90;;;;;;5031297;28;20651;-74
2022/02/04 11:56:19;;;;;;;1.65;1.55;;;10.00;99.90;;;;;;5031379;28;20600;-73
2022/02/04 11:59:00;;;;;;;1.10;1.10;;;10.00;99.90;;;;;;5030694;28;20178;-75
2022/02/04 12:01:42;;;;;;;1.20;0.98;;;10.00;99.90;;;;;;5031156;28;20225;-73
2022/02/04 12:04:20;;;;;;;1.17;1.08;;;10.00;99.90;;;;;;5020720;28;20633;-73
2022/02/04 12:06:45;;;;;;;2.00;1.00;;;9.90;99.90;;;;;;5013378;28;20171;-73
2022/02/04 12:09:45;;;;;;;1.00;1.00;;;10.00;99.90;;;;;;5013283;28;20426;-72
2022/02/04 12:12:14;;;;;;;1.20;1.10;;;10.00;99.90;;;;;;5028589;28;20175;-73
2022/02/04 12:14:39;;;;;;;0.93;0.93;;;10.00;99.90;;;;;;5013833;28;20715;-74
2022/02/04 12:17:16;;;;;;;1.00;1.00;;;10.00;99.90;;;;;;5013656;28;20198;-74
2022/02/04 12:19:52;;;;;;;17.40;1.73;;;10.10;99.90;;;;;;5012615;28;20225;-74
2022/02/04 12:22:48;;;;;;;1.48;1.10;;;10.00;99.90;;;;;;5013225;28;20162;-73
2022/02/04 12:25:52;;;;;;;1.67;1.58;;;10.00;99.90;;;;;;5013008;28;20178;-74
2022/02/04 12:28:37;;;;;;;3.85;2.63;;;10.10;99.90;;;;;;5011173;28;20201;-73
2022/02/04 12:31:30;;;;;;;1.85;1.27;;;10.10;99.90;;;;;;5013018;28;20241;-74
2022/02/04 12:34:05;;;;;;;1.10;0.90;;;10.10;99.90;;;;;;5013043;28;20231;-72
2022/02/04 12:36:32;;;;;;;0.60;0.60;;;10.10;99.90;;;;;;5013380;28;20177;-73
2022/02/04 12:39:13;;;;;;;1.58;1.10;;;10.10;99.90;;;;;;5012600;28;20657;-74
2022/02/04 12:41:54;;;;;;;0.65;0.65;;;10.00;99.90;;;;;;5015859;28;20234;-73
2022/02/04 12:44:26;;;;;;;1.00;0.75;;;9.80;99.90;;;;;;5016657;28;20171;-74
2022/02/04 12:46:54;;;;;;;0.50;0.50;;;9.80;99.90;;;;;;5015295;28;20167;-75
2022/02/04 12:49:22;;;;;;;0.98;0.75;;;9.70;99.90;;;;;;5016155;28;20186;-73
2022/02/04 12:54:41;;;;;;;7.45;1.00;;;9.70;99.90;;;;;;5016642;28;20170;-73
2022/02/04 13:07:47;;;;;;;1.70;1.35;;;9.80;99.90;;;;;;5016226;28;20201;-75
2022/02/04 13:10:27;;;;;;;0.70;0.70;;;9.80;99.90;;;;;;5016151;28;20229;-71
2022/02/04 13:12:59;;;;;;;1.13;1.02;;;9.70;99.90;;;;;;5016040;28;20182;-73
2022/02/04 13:15:27;;;;;;;1.95;1.10;;;9.70;99.90;;;;;;5016211;28;20178;-74
2022/02/04 13:17:54;;;;;;;0.63;0.63;;;9.70;99.90;;;;;;5015975;28;20191;-73
2022/02/04 13:20:21;;;;;;;0.77;0.77;;;9.60;99.90;;;;;;5015751;28;20281;-72
2022/02/04 13:22:50;;;;;;;1.20;1.10;;;9.50;99.90;;;;;;5016320;28;20163;-75
2022/02/04 13:25:19;;;;;;;0.60;0.60;;;9.50;99.90;;;;;;5014770;28;20179;-73
2022/02/04 13:28:01;;;;;;;0.82;0.82;;;9.50;99.90;;;;;;5014013;28;20229;-73
2022/02/04 13:30:30;;;;;;;0.82;0.82;;;9.50;99.90;;;;;;5012639;28;20619;-72
2022/02/04 13:32:56;;;;;;;0.70;0.70;;;9.40;99.90;;;;;;5014440;28;20529;-71
2022/02/04 13:35:29;;;;;;;0.70;0.70;;;9.40;99.90;;;;;;5012917;28;20179;-71
2022/02/04 13:38:00;;;;;;;2.00;1.00;;;9.50;99.90;;;;;;5013117;28;20417;-71
2022/02/04 13:40:44;;;;;;;1.08;0.98;;;9.40;99.90;;;;;;5013872;28;20199;-72
2022/02/04 13:43:39;;;;;;;1.15;0.95;;;9.40;99.90;;;;;;5012488;28;20689;-74
2022/02/04 13:46:32;;;;;;;1.48;1.45;;;9.30;99.90;;;;;;5006225;28;20533;-76
2022/02/04 13:49:06;;;;;;;1.27;1.17;;;9.30;99.90;;;;;;5015238;28;20186;-76
2022/02/04 13:51:45;;;;;;;0.85;0.85;;;9.30;99.90;;;;;;5014519;28;20594;-77
2022/02/04 13:57:30;;;;;;;1.58;1.17;;;9.20;99.90;;;;;;4983651;28;20182;-77
2022/02/04 14:02:53;;;;;;;0.60;0.60;;;9.20;99.90;;;;;;5014862;28;20162;-76
2022/02/04 14:05:25;;;;;;;0.60;0.60;;;9.20;99.90;;;;;;5015176;28;20171;-75
2022/02/04 14:07:54;;;;;;;0.70;0.70;;;9.20;99.90;;;;;;5014621;28;20254;-75
2022/02/04 14:10:31;;;;;;;1.05;1.05;;;9.30;99.90;;;;;;5010221;28;20194;-75
2022/02/04 14:13:09;;;;;;;1.08;1.05;;;9.20;99.90;;;;;;4995118;28;20210;-75
2022/02/04 14:15:42;;;;;;;1.10;1.10;;;9.20;99.90;;;;;;5003823;28;20261;-73
2022/02/04 14:18:11;;;;;;;1.33;0.98;;;9.20;99.90;;;;;;5014757;28;20193;-72
2022/02/04 14:20:40;;;;;;;0.70;0.70;;;9.20;99.90;;;;;;5014915;28;20194;-75
2022/02/04 14:23:08;;;;;;;0.70;0.70;;;9.20;99.90;;;;;;5014755;28;20163;-74
2022/02/04 14:25:59;;;;;;;0.60;0.57;;;9.20;99.90;;;;;;5015156;28;20166;-75
2022/02/04 14:28:36;;;;;;;0.70;0.70;;;9.20;99.90;;;;;;5014498;28;20572;-74
2022/02/04 14:31:12;;;;;;;2.40;0.80;;;9.30;99.90;;;;;;5014604;28;20177;-75
2022/02/04 14:52:56;;;;;;;1.35;1.25;;;9.00;99.90;;;;;;5013134;28;20196;-73
2022/02/04 15:00:58;;;;;;;1.40;1.30;;;8.80;99.90;;;;;;5014082;28;20265;-73
2022/02/04 15:03:31;;;;;;;0.82;0.82;;;8.80;99.90;;;;;;5014017;28;20576;-74
2022/02/04 15:06:02;;;;;;;1.05;1.05;;;8.70;99.90;;;;;;5014302;28;20170;-75
2022/02/04 15:08:31;;;;;;;1.17;1.00;;;8.70;99.90;;;;;;5013746;28;20525;-74
2022/02/04 15:11:00;;;;;;;1.23;1.13;;;8.60;99.90;;;;;;5014220;28;20297;-73
2022/02/04 15:13:28;;;;;;;1.10;0.75;;;8.60;99.90;;;;;;5013995;28;20246;-73
2022/02/04 15:15:54;;;;;;;0.95;0.95;;;8.50;99.90;;;;;;5013958;28;20224;-73
2022/02/04 15:18:20;;;;;;;0.70;0.63;;;8.50;99.90;;;;;;5014181;28;20258;-74
2022/02/04 15:20:46;;;;;;;1.03;0.90;;;8.50;99.90;;;;;;5014490;28;20464;-73
2022/02/04 15:23:13;;;;;;;0.77;0.67;;;8.50;99.90;;;;;;5014265;28;20174;-73
2022/02/04 15:25:39;;;;;;;0.90;0.90;;;8.50;99.90;;;;;;5029048;28;20217;-74
2022/02/04 15:30:45;;;;;;;0.73;0.73;;;8.50;99.90;;;;;;5013548;28;20586;-74
2022/02/04 15:33:11;;;;;;;0.75;0.75;;;8.40;99.90;;;;;;5014209;28;20174;-74
2022/02/04 15:35:37;;;;;;;1.50;1.40;;;8.40;99.90;;;;;;5013797;28;20167;-74
2022/02/04 15:38:03;;;;;;;0.70;0.70;;;8.40;99.90;;;;;;5013414;28;20438;-73
2022/02/04 15:40:29;;;;;;;1.07;0.80;;;8.40;99.90;;;;;;5013662;28;20234;-74
2022/02/04 15:42:57;;;;;;;1.98;0.75;;;8.40;99.90;;;;;;5013521;28;20177;-73
2022/02/04 15:50:44;;;;;;;0.70;0.70;;;8.30;99.90;;;;;;5013406;28;20280;-75
2022/02/04 15:58:32;;;;;;;0.82;0.82;;;8.30;99.90;;;;;;5013304;28;20724;-74
2022/02/04 16:06:06;;;;;;;1.02;0.95;;;8.30;99.90;;;;;;5013837;28;20181;-74
2022/02/04 16:08:32;;;;;;;1.08;0.95;;;8.20;99.90;;;;;;5013110;28;20199;-72
2022/02/04 16:13:36;;;;;;;0.80;0.63;;;8.30;99.90;;;;;;5013556;28;20656;-74
2022/02/04 16:18:38;;;;;;;0.98;0.85;;;8.30;99.90;;;;;;5017177;28;20175;-74
2022/02/04 16:21:12;;;;;;;12.98;1.13;;;8.30;99.90;;;;;;5017168;28;20225;-73
2022/02/04 16:26:48;;;;;;;0.43;0.43;;;8.30;99.90;;;;;;5016947;28;20224;-74
2022/02/04 16:29:11;;;;;;;1.10;0.50;;;8.30;99.90;;;;;;5016548;28;20205;-74
2022/02/04 16:31:37;;;;;;;0.50;0.50;;;8.30;99.90;;;;;;5016956;28;20174;-74
2022/02/04 16:34:08;;;;;;;0.70;0.63;;;8.20;99.90;;;;;;5016894;28;20406;-74
2022/02/04 16:36:38;;;;;;;1.60;0.88;;;8.20;99.90;;;;;;5016813;28;20225;-72
2022/02/04 16:39:04;;;;;;;0.95;0.75;;;8.20;99.90;;;;;;5016348;28;20201;-74
2022/02/04 16:41:33;;;;;;;0.80;0.80;;;8.20;99.90;;;;;;5015792;28;20677;-74
2022/02/04 16:44:00;;;;;;;0.50;0.50;;;8.20;99.90;;;;;;5016861;28;20171;-74
2022/02/04 16:46:26;;;;;;;0.68;0.68;;;8.20;99.90;;;;;;5016636;28;20177;-73
2022/02/04 16:48:51;;;;;;;1.10;0.50;;;8.10;99.90;;;;;;5016182;28;20622;-73
2022/02/04 16:51:18;;;;;;;0.73;0.73;;;8.20;99.90;;;;;;5016536;28;20273;-74
2022/02/04 16:53:44;;;;;;;0.50;0.50;;;8.10;99.90;;;;;;5032016;28;20185;-74
2022/02/04 16:56:10;;;;;;;0.70;0.70;;;8.10;99.90;;;;;;5016535;28;20171;-74
2022/02/04 16:58:36;;;;;;;0.50;0.50;;;8.00;99.90;;;;;;5016286;28;20655;-74
2022/02/04 17:01:03;;;;;;;0.60;0.60;;;8.00;99.90;;;;;;5016473;28;20197;-74
2022/02/04 17:03:29;;;;;;;0.57;0.40;;;8.10;99.90;;;;;;5016541;28;20162;-74
2022/02/04 17:05:59;;;;;;;0.83;0.83;;;8.10;99.90;;;;;;5016368;28;20518;-73
2022/02/04 17:08:46;;;;;;;2.10;1.60;;;8.10;99.90;;;;;;5016062;28;20154;-73
2022/02/04 17:11:15;;;;;;;0.50;0.50;;;8.10;99.90;;;;;;5016772;28;20189;-73
2022/02/04 17:13:41;;;;;;;0.80;0.80;;;8.10;99.90;;;;;;5016376;28;20560;-75
2022/02/04 17:16:07;;;;;;;0.68;0.68;;;8.20;99.90;;;;;;5016201;28;20210;-74
2022/02/04 17:18:37;;;;;;;0.67;0.50;;;8.20;99.90;;;;;;5015465;28;20214;-74
2022/02/04 17:21:03;;;;;;;1.05;0.70;;;8.20;99.90;;;;;;5016064;28;20582;-75
2022/02/04 17:23:32;;;;;;;0.50;0.50;;;8.20;99.90;;;;;;5016195;28;20166;-74
2022/02/04 17:25:59;;;;;;;0.43;0.43;;;8.20;99.90;;;;;;5015847;28;20177;-75
2022/02/04 17:28:30;;;;;;;1.20;1.10;;;8.30;99.90;;;;;;5015574;28;20162;-75
2022/02/04 17:30:56;;;;;;;0.70;0.70;;;8.30;99.90;;;;;;5015857;28;20219;-75
2022/02/04 17:33:24;;;;;;;0.60;0.50;;;8.30;99.90;;;;;;5015781;28;20540;-74
2022/02/04 17:35:50;;;;;;;0.63;0.60;;;8.30;99.90;;;;;;5016341;28;20201;-74
2022/02/04 17:38:16;;;;;;;0.53;0.53;;;8.30;99.90;;;;;;5014003;28;20240;-74
2022/02/04 17:40:42;;;;;;;0.80;0.80;;;8.30;99.90;;;;;;5015408;28;20453;-75
2022/02/04 17:43:08;;;;;;;0.73;0.60;;;8.20;99.90;;;;;;5015741;28;20629;-73
2022/02/04 17:45:34;;;;;;;0.70;0.63;;;8.20;99.90;;;;;;5015842;28;20198;-74
2022/02/04 17:48:21;;;;;;;1.33;1.10;;;8.20;99.90;;;;;;5015203;28;20416;-74
2022/02/04 17:51:06;;;;;;;0.70;0.40;;;8.30;99.90;;;;;;5015541;28;20453;-75
2022/02/04 17:53:46;;;;;;;0.93;0.90;;;8.20;99.90;;;;;;5015779;28;20214;-74
2022/02/04 17:56:28;;;;;;;0.80;0.65;;;8.20;99.90;;;;;;5015248;28;20178;-75
2022/02/04 18:07:11;;;;;;;0.63;0.63;;;8.20;99.90;;;;;;5015516;28;20255;-74
2022/02/04 18:09:38;;;;;;;0.73;0.73;;;8.20;99.90;;;;;;5014855;28;20652;-74
2022/02/04 18:12:05;;;;;;;0.90;0.90;;;8.10;99.90;;;;;;5015330;28;20290;-74
2022/02/04 18:14:30;;;;;;;1.23;1.15;;;8.20;99.90;;;;;;5015089;28;20167;-74
2022/02/04 18:16:57;;;;;;;0.60;0.60;;;8.10;99.90;;;;;;5015147;28;20293;-75
2022/02/04 18:19:22;;;;;;;2.55;1.63;;;8.10;99.90;;;;;;5014604;28;20699;-74
2022/02/04 18:21:48;;;;;;;0.70;0.70;;;8.10;99.90;;;;;;5014751;28;20198;-75
2022/02/04 18:24:14;;;;;;;0.70;0.70;;;8.20;99.90;;;;;;5015070;28;20170;-75
2022/02/04 18:26:40;;;;;;;1.10;0.93;;;8.20;99.90;;;;;;5013838;28;20261;-75
2022/02/04 18:29:06;;;;;;;1.93;1.70;;;8.20;99.90;;;;;;5014209;28;20185;-74
2022/02/04 18:31:33;;;;;;;1.53;1.00;;;8.20;99.90;;;;;;5013743;28;20783;-73
2022/02/04 18:34:01;;;;;;;0.60;0.60;;;8.20;99.90;;;;;;5014845;28;20899;-73
2022/02/04 18:36:28;;;;;;;0.90;0.90;;;8.20;99.90;;;;;;5014793;28;20170;-74
2022/02/04 18:39:09;;;;;;;0.75;0.75;;;8.10;99.90;;;;;;5013603;28;20225;-75
2022/02/04 18:44:21;;;;;;;1.02;0.93;;;8.00;99.90;;;;;;5014826;28;20167;-73
2022/02/04 18:51:54;;;;;;;1.02;1.02;;;7.90;99.90;;;;;;5014032;28;20179;-75
2022/02/04 18:59:29;;;;;;;0.70;0.70;;;7.90;99.90;;;;;;5013157;28;20288;-73
2022/02/04 19:01:55;;;;;;;0.93;0.93;;;7.90;99.90;;;;;;5013378;28;20202;-73
2022/02/04 19:04:29;;;;;;;1.05;1.05;;;7.90;99.90;;;;;;5014024;28;20171;-75
2022/02/04 19:07:03;;;;;;;0.82;0.82;;;7.90;99.90;;;;;;5013381;28;20221;-75
2022/02/04 19:09:29;;;;;;;0.80;0.80;;;7.90;99.90;;;;;;5012853;28;20593;-74
2022/02/04 19:12:02;;;;;;;0.87;0.83;;;8.00;99.90;;;;;;5013147;28;20181;-75
2022/02/04 19:17:41;;;;;;;0.98;0.98;;;8.00;99.90;;;;;;5013067;28;20544;-75
2022/02/04 19:20:05;;;;;;;0.88;0.88;;;8.00;99.90;;;;;;5012581;28;20240;-74
2022/02/04 19:22:37;;;;;;;1.45;1.35;;;8.00;99.90;;;;;;5013184;28;20189;-73
2022/02/04 19:25:07;;;;;;;2.67;0.75;;;7.90;99.90;;;;;;5013175;28;20763;-73
2022/02/04 19:27:34;;;;;;;1.33;0.90;;;7.90;99.90;;;;;;5012891;28;20260;-74
2022/02/04 19:30:02;;;;;;;1.20;1.10;;;7.90;99.90;;;;;;5012680;28;20193;-74
2022/02/04 19:32:27;;;;;;;0.82;0.82;;;7.90;99.90;;;;;;5011734;28;20170;-73
2022/02/04 19:34:53;;;;;;;0.80;0.80;;;7.90;99.90;;;;;;5013152;28;20627;-74
2022/02/04 19:37:19;;;;;;;0.80;0.80;;;7.80;99.90;;;;;;5012958;28;20174;-75
2022/02/04 19:39:47;;;;;;;0.40;0.40;;;7.80;99.90;;;;;;5012442;28;20639;-75